Zagreb — 9AA5910 — position and weather

sailwx.info

Track history (hours):
 
Tides and Currents Weather Stations Pressure Air Temp Water Temp Dewpoint Dewpoint Depression Visibility Wind Speed Wind Dir Waves Ship Positions

Zagreb

Last reported at 2015-Jul-28 06:32 UTC. Time now 2015-Jul-28 08:24 UTC.
Position N 53°38' E 006°10'.

Length 229 m; draft 10.6 m.

Type: Cargo ship. MMSI: 238249000.

Date/timePositionNaut miles runAvg speedWind from/ knotsBaromVisibWave heightAir tempDewpointWater temp
2015-Jul-28 06:32N 53°38' E 006°10'0 0.0
2015-Jul-28 05:14N 53°38' E 006°10'0 0.0
2015-Jul-28 04:26N 53°38' E 006°10'0 0.0
2015-Jul-28 03:23N 53°38' E 006°10'0 0.0
2015-Jul-28 02:26N 53°38' E 006°10'0 0.0
2015-Jul-28 01:29N 53°38' E 006°10'0 0.0
2015-Jul-28 00:32N 53°38' E 006°10'0 0.0
2015-Jul-27 23:26N 53°38' E 006°10'0 0.0
2015-Jul-27 22:32N 53°38' E 006°10'0 0.0
2015-Jul-27 21:26N 53°38' E 006°10'0 0.0
2015-Jul-27 20:32N 53°38' E 006°10'0 0.0
2015-Jul-27 19:29N 53°38' E 006°10'0 0.0
2015-Jul-27 18:29N 53°38' E 006°10'0 0.0
2015-Jul-27 17:14N 53°38' E 006°10'0 0.0
2015-Jul-27 16:26N 53°38' E 006°10'0 0.0
2015-Jul-27 15:29N 53°38' E 006°10'0 0.0
2015-Jul-27 13:26N 53°38' E 006°10'0 0.0
2015-Jul-27 12:32N 53°38' E 006°10'0 0.0
2015-Jul-27 11:32N 53°38' E 006°10'0 0.1
2015-Jul-27 10:26N 53°39' E 006°10'0 0.1
2015-Jul-27 09:32N 53°39' E 006°10'0 0.0
2015-Jul-27 08:32N 53°39' E 006°10'0 0.1
2015-Jul-27 07:23N 53°39' E 006°10'0 0.0
2015-Jul-27 06:26N 53°39' E 006°10'0 0.1
2015-Jul-27 05:32N 53°39' E 006°10'0 0.0
2015-Jul-27 04:32N 53°38' E 006°10'0 0.0
2015-Jul-27 03:32N 53°38' E 006°10'0 0.0
2015-Jul-27 02:32N 53°38' E 006°10'0 0.1
2015-Jul-27 01:32N 53°39' E 006°10'0 0.1
2015-Jul-27 00:32N 53°39' E 006°10'0 0.1
2015-Jul-26 23:26N 53°38' E 006°10'0 0.0
2015-Jul-26 22:32N 53°38' E 006°10'0 0.0
2015-Jul-26 21:32N 53°38' E 006°10'0 0.0
2015-Jul-26 20:26N 53°38' E 006°10'0 0.1
2015-Jul-26 19:32N 53°38' E 006°10'0 0.0
2015-Jul-26 14:11N 53°38' E 006°10'0 0.0
2015-Jul-26 12:11N 53°38' E 006°10'0 0.1
2015-Jul-26 11:05N 53°38' E 006°10'0 0.1
2015-Jul-26 10:29N 53°38' E 006°10'0 0.0
2015-Jul-26 09:29N 53°38' E 006°10'0 0.0
2015-Jul-26 08:32N 53°38' E 006°10'0 0.1
2015-Jul-26 07:23N 53°38' E 006°10'0 0.1
2015-Jul-26 06:32N 53°38' E 006°10'0 0.0
2015-Jul-26 05:29N 53°38' E 006°10'0 0.1
2015-Jul-26 03:33N 53°38' E 006°10'4 3.7
2015-Jul-26 02:33N 53°38' E 006°04'1 1.4
2015-Jul-26 01:29N 53°38' E 006°07'2 1.0
2015-Jul-25 23:31N 53°38' E 006°10'4 3.7
2015-Jul-25 22:34N 53°40' E 006°05'1 1.1
2015-Jul-25 21:33N 53°39' E 006°06'1 0.8
2015-Jul-25 20:33N 53°39' E 006°08'1 0.7
2015-Jul-25 19:33N 53°39' E 006°09'1 0.7
2015-Jul-25 18:33N 53°39' E 006°10'1 0.8
2015-Jul-25 17:33N 53°38' E 006°10'0 0.0
2015-Jul-25 10:33N 53°38' E 006°10'0 0.1
2015-Jul-25 09:30N 53°38' E 006°10'0 0.0
2015-Jul-25 08:33N 53°38' E 006°10'0 0.0
2015-Jul-25 07:33N 53°38' E 006°10'0 0.0
2015-Jul-25 06:33N 53°38' E 006°10'0 0.0
2015-Jul-25 05:33N 53°38' E 006°10'0 0.0
2015-Jul-25 04:33N 53°38' E 006°10'0 0.0
2015-Jul-25 03:18N 53°38' E 006°10'0 0.0
2015-Jul-25 02:27N 53°38' E 006°10'0 0.0
2015-Jul-25 01:30N 53°38' E 006°10'0 0.1
2015-Jul-25 00:33N 53°38' E 006°10'0 0.0
2015-Jul-24 23:18N 53°38' E 006°10'0 0.1
2015-Jul-24 22:33N 53°38' E 006°10'0 0.0
2015-Jul-24 21:33N 53°38' E 006°10'0 0.0
2015-Jul-24 20:27N 53°38' E 006°10'0 0.0
2015-Jul-24 19:33N 53°38' E 006°10'0 0.0
2015-Jul-24 18:33N 53°38' E 006°10'0 0.0
2015-Jul-24 17:33N 53°38' E 006°10'0 0.0
2015-Jul-24 16:33N 53°38' E 006°10'0 0.0
2015-Jul-24 15:33N 53°38' E 006°10'0 0.2
2015-Jul-24 14:33N 53°38' E 006°10'0 0.0
2015-Jul-24 12:15N 53°38' E 006°10'0 0.1
2015-Jul-24 10:30N 53°38' E 006°10'0 0.1
2015-Jul-24 09:30N 53°38' E 006°10'0 0.0
2015-Jul-24 08:30N 53°38' E 006°10'0 0.0
2015-Jul-24 07:30N 53°38' E 006°10'0 0.0
2015-Jul-24 06:33N 53°38' E 006°10'0 0.0
2015-Jul-24 05:30N 53°38' E 006°10'0 0.2
2015-Jul-24 04:33N 53°38' E 006°10'0 0.1
2015-Jul-24 03:30N 53°38' E 006°10'0 0.0
2015-Jul-24 02:27N 53°38' E 006°10'0 0.0
2015-Jul-24 01:30N 53°38' E 006°10'0 0.0
2015-Jul-24 00:33N 53°38' E 006°10'0 0.0
2015-Jul-23 23:33N 53°38' E 006°10'0 0.0
2015-Jul-23 22:15N 53°38' E 006°10'0 0.1
2015-Jul-23 21:27N 53°38' E 006°10'5 5.7
2015-Jul-23 20:33N 53°38' E 006°02'1212.1
2015-Jul-23 19:34N 53°37' E 005°41'1212.1
2015-Jul-23 18:33N 53°33' E 005°22'1211.7
2015-Jul-23 17:33N 53°29' E 005°03'1212.2
2015-Jul-23 16:33N 53°25' E 004°44'1712.0
2015-Jul-23 15:09N 53°10' E 004°30'712.0
2015-Jul-23 14:33N 53°04' E 004°24'1212.0
2015-Jul-23 13:33N 52°53' E 004°15'1211.9
2015-Jul-23 12:34N 52°42' E 004°07'1111.1
2015-Jul-23 11:34N 52°32' E 004°11'1010.2
2015-Jul-23 10:33N 52°29' E 004°27'4 3.6
2015-Jul-23 09:33N 52°28' E 004°33'3 3.1
2015-Jul-23 08:33N 52°28' E 004°38'6 5.9
2015-Jul-23 07:34N 52°26' E 004°47'2 1.7
2015-Jul-23 06:32N 52°25' E 004°49'0 0.0
2015-Jul-23 05:32N 52°25' E 004°49'0 0.0
2015-Jul-23 04:32N 52°25' E 004°49'0 0.0
2015-Jul-23 03:32N 52°25' E 004°49'0 0.0
2015-Jul-23 02:31N 52°25' E 004°49'0 0.0
2015-Jul-23 01:32N 52°25' E 004°49'0 0.0
2015-Jul-23 00:32N 52°25' E 004°49'0 0.0
2015-Jul-22 23:31N 52°25' E 004°49'0 0.0
2015-Jul-22 22:32N 52°25' E 004°49'0 0.0
2015-Jul-22 21:31N 52°25' E 004°49'0 0.0
2015-Jul-22 20:31N 52°25' E 004°49'0 0.0
2015-Jul-22 19:31N 52°25' E 004°49'0 0.0
2015-Jul-22 18:32N 52°25' E 004°49'0 0.0
2015-Jul-22 17:31N 52°25' E 004°49'0 0.0
2015-Jul-22 16:32N 52°25' E 004°49'0 0.0
2015-Jul-22 15:32N 52°25' E 004°49'0 0.0
2015-Jul-22 14:31N 52°25' E 004°49'0 0.0
2015-Jul-22 13:32N 52°25' E 004°49'0 0.0
2015-Jul-22 12:31N 52°25' E 004°49'0 0.0
2015-Jul-22 11:32N 52°25' E 004°49'0 0.2
2015-Jul-22 10:34N 52°25' E 004°49'7 6.7
2015-Jul-22 09:33N 52°28' E 004°39'2 2.4
2015-Jul-22 08:34N 52°28' E 004°35'4 4.0
2015-Jul-22 07:33N 52°28' E 004°29'8 8.2
2015-Jul-22 06:33N 52°29' E 004°15'4 4.3
2015-Jul-22 05:33N 52°29' E 004°08'8 7.6
2015-Jul-22 04:33N 52°28' E 003°56'8 7.8
2015-Jul-22 03:33N 52°35' E 003°54'1212.0
2015-Jul-22 02:33N 52°47' E 003°56'1212.1
2015-Jul-22 01:33N 52°59' E 004°02'1312.0
2015-Jul-22 00:29N 53°07' E 004°18'1111.4
2015-Jul-21 23:33N 53°16' E 004°28'1111.1
2015-Jul-21 22:33N 53°27' E 004°33'1110.7
2015-Jul-21 21:33N 53°37' E 004°40'1110.6
2015-Jul-21 20:34N 53°46' E 004°46'1110.9
2015-Jul-21 19:31N 53°57' E 004°53'1111.3
2015-Jul-21 18:33N 54°07' E 005°00'1111.5
2015-Jul-21 17:33N 54°18' E 005°08'1211.4
2015-Jul-21 16:28N 54°29' E 005°17'1011.2
2015-Jul-21 15:33N 54°38' E 005°23'22911.3
2015-Jul-20 19:15N 57°46' E 009°19'810.3
2015-Jul-20 18:30N 57°49' E 009°33'2310.4
2015-Jul-20 16:18N 57°50' E 010°16'810.4
2015-Jul-20 15:32N 57°50' E 010°31'1010.2
2015-Jul-20 14:32N 57°47' E 010°49'1010.5
2015-Jul-20 13:33N 57°39' E 011°02'1211.6
2015-Jul-20 12:33N 57°31' E 011°18'1111.4
2015-Jul-20 11:33N 57°22' E 011°29'1212.1
2015-Jul-20 10:33N 57°10' E 011°37'1211.6
2015-Jul-20 09:33N 56°59' E 011°44'1111.3
2015-Jul-20 08:33N 56°49' E 011°51'13211.0
2015-Jul-19 20:30N 54°41' E 010°48'1111.8
2015-Jul-19 19:33N 54°36' E 011°04'1212.3
2015-Jul-19 18:33N 54°32' E 011°25'1212.2
2015-Jul-19 17:33N 54°28' E 011°44'1212.3
2015-Jul-19 16:34N 54°27' E 012°05'5811.4
2015-Jul-19 11:29N 54°57' E 013°30'1112.2
2015-Jul-19 10:33N 55°01' E 013°49'1511.6
2015-Jul-19 09:17N 55°09' E 014°11'911.9
2015-Jul-19 08:33N 55°16' E 014°20'1512.0
2015-Jul-19 07:20N 55°27' E 014°37'1112.1
2015-Jul-19 06:26N 55°32' E 014°54'9411.8
2015-Jul-18 22:31N 55°58' E 017°33'  
Track history (hours):
 
Tides and Currents Weather Stations Pressure Air Temp Water Temp Dewpoint Dewpoint Depression Visibility Wind Speed Wind Dir Waves Ship Positions

Zagreb

Last reported at 2015-Jul-28 06:32 UTC. Time now 2015-Jul-28 08:24 UTC.
Position N 53°38' E 006°10'.

Length 229 m; draft 10.6 m.

Type: Cargo ship. MMSI: 238249000.

Date/timePositionNaut miles runAvg speedWind from/ knotsBaromVisibWave heightAir tempDewpointWater temp
2015-Jul-28 06:32N 53°38' E 006°10'0 0.0
2015-Jul-28 05:14N 53°38' E 006°10'0 0.0
2015-Jul-28 04:26N 53°38' E 006°10'0 0.0
2015-Jul-28 03:23N 53°38' E 006°10'0 0.0
2015-Jul-28 02:26N 53°38' E 006°10'0 0.0
2015-Jul-28 01:29N 53°38' E 006°10'0 0.0
2015-Jul-28 00:32N 53°38' E 006°10'0 0.0
2015-Jul-27 23:26N 53°38' E 006°10'0 0.0
2015-Jul-27 22:32N 53°38' E 006°10'0 0.0
2015-Jul-27 21:26N 53°38' E 006°10'0 0.0
2015-Jul-27 20:32N 53°38' E 006°10'0 0.0
2015-Jul-27 19:29N 53°38' E 006°10'0 0.0
2015-Jul-27 18:29N 53°38' E 006°10'0 0.0
2015-Jul-27 17:14N 53°38' E 006°10'0 0.0
2015-Jul-27 16:26N 53°38' E 006°10'0 0.0
2015-Jul-27 15:29N 53°38' E 006°10'0 0.0
2015-Jul-27 13:26N 53°38' E 006°10'0 0.0
2015-Jul-27 12:32N 53°38' E 006°10'0 0.0
2015-Jul-27 11:32N 53°38' E 006°10'0 0.1
2015-Jul-27 10:26N 53°39' E 006°10'0 0.1
2015-Jul-27 09:32N 53°39' E 006°10'0 0.0
2015-Jul-27 08:32N 53°39' E 006°10'0 0.1
2015-Jul-27 07:23N 53°39' E 006°10'0 0.0
2015-Jul-27 06:26N 53°39' E 006°10'0 0.1
2015-Jul-27 05:32N 53°39' E 006°10'0 0.0
2015-Jul-27 04:32N 53°38' E 006°10'0 0.0
2015-Jul-27 03:32N 53°38' E 006°10'0 0.0
2015-Jul-27 02:32N 53°38' E 006°10'0 0.1
2015-Jul-27 01:32N 53°39' E 006°10'0 0.1
2015-Jul-27 00:32N 53°39' E 006°10'0 0.1
2015-Jul-26 23:26N 53°38' E 006°10'0 0.0
2015-Jul-26 22:32N 53°38' E 006°10'0 0.0
2015-Jul-26 21:32N 53°38' E 006°10'0 0.0
2015-Jul-26 20:26N 53°38' E 006°10'0 0.1
2015-Jul-26 19:32N 53°38' E 006°10'0 0.0
2015-Jul-26 14:11N 53°38' E 006°10'0 0.0
2015-Jul-26 12:11N 53°38' E 006°10'0 0.1
2015-Jul-26 11:05N 53°38' E 006°10'0 0.1
2015-Jul-26 10:29N 53°38' E 006°10'0 0.0
2015-Jul-26 09:29N 53°38' E 006°10'0 0.0
2015-Jul-26 08:32N 53°38' E 006°10'0 0.1
2015-Jul-26 07:23N 53°38' E 006°10'0 0.1
2015-Jul-26 06:32N 53°38' E 006°10'0 0.0
2015-Jul-26 05:29N 53°38' E 006°10'0 0.1
2015-Jul-26 03:33N 53°38' E 006°10'4 3.7
2015-Jul-26 02:33N 53°38' E 006°04'1 1.4
2015-Jul-26 01:29N 53°38' E 006°07'2 1.0
2015-Jul-25 23:31N 53°38' E 006°10'4 3.7
2015-Jul-25 22:34N 53°40' E 006°05'1 1.1
2015-Jul-25 21:33N 53°39' E 006°06'1 0.8
2015-Jul-25 20:33N 53°39' E 006°08'1 0.7
2015-Jul-25 19:33N 53°39' E 006°09'1 0.7
2015-Jul-25 18:33N 53°39' E 006°10'1 0.8
2015-Jul-25 17:33N 53°38' E 006°10'0 0.0
2015-Jul-25 10:33N 53°38' E 006°10'0 0.1
2015-Jul-25 09:30N 53°38' E 006°10'0 0.0
2015-Jul-25 08:33N 53°38' E 006°10'0 0.0
2015-Jul-25 07:33N 53°38' E 006°10'0 0.0
2015-Jul-25 06:33N 53°38' E 006°10'0 0.0
2015-Jul-25 05:33N 53°38' E 006°10'0 0.0
2015-Jul-25 04:33N 53°38' E 006°10'0 0.0
2015-Jul-25 03:18N 53°38' E 006°10'0 0.0
2015-Jul-25 02:27N 53°38' E 006°10'0 0.0
2015-Jul-25 01:30N 53°38' E 006°10'0 0.1
2015-Jul-25 00:33N 53°38' E 006°10'0 0.0
2015-Jul-24 23:18N 53°38' E 006°10'0 0.1
2015-Jul-24 22:33N 53°38' E 006°10'0 0.0
2015-Jul-24 21:33N 53°38' E 006°10'0 0.0
2015-Jul-24 20:27N 53°38' E 006°10'0 0.0
2015-Jul-24 19:33N 53°38' E 006°10'0 0.0
2015-Jul-24 18:33N 53°38' E 006°10'0 0.0
2015-Jul-24 17:33N 53°38' E 006°10'0 0.0
2015-Jul-24 16:33N 53°38' E 006°10'0 0.0
2015-Jul-24 15:33N 53°38' E 006°10'0 0.2
2015-Jul-24 14:33N 53°38' E 006°10'0 0.0
2015-Jul-24 12:15N 53°38' E 006°10'0 0.1
2015-Jul-24 10:30N 53°38' E 006°10'0 0.1
2015-Jul-24 09:30N 53°38' E 006°10'0 0.0
2015-Jul-24 08:30N 53°38' E 006°10'0 0.0
2015-Jul-24 07:30N 53°38' E 006°10'0 0.0
2015-Jul-24 06:33N 53°38' E 006°10'0 0.0
2015-Jul-24 05:30N 53°38' E 006°10'0 0.2
2015-Jul-24 04:33N 53°38' E 006°10'0 0.1
2015-Jul-24 03:30N 53°38' E 006°10'0 0.0
2015-Jul-24 02:27N 53°38' E 006°10'0 0.0
2015-Jul-24 01:30N 53°38' E 006°10'0 0.0
2015-Jul-24 00:33N 53°38' E 006°10'0 0.0
2015-Jul-23 23:33N 53°38' E 006°10'0 0.0
2015-Jul-23 22:15N 53°38' E 006°10'0 0.1
2015-Jul-23 21:27N 53°38' E 006°10'5 5.7
2015-Jul-23 20:33N 53°38' E 006°02'1212.1
2015-Jul-23 19:34N 53°37' E 005°41'1212.1
2015-Jul-23 18:33N 53°33' E 005°22'1211.7
2015-Jul-23 17:33N 53°29' E 005°03'1212.2
2015-Jul-23 16:33N 53°25' E 004°44'1712.0
2015-Jul-23 15:09N 53°10' E 004°30'712.0
2015-Jul-23 14:33N 53°04' E 004°24'1212.0
2015-Jul-23 13:33N 52°53' E 004°15'1211.9
2015-Jul-23 12:34N 52°42' E 004°07'1111.1
2015-Jul-23 11:34N 52°32' E 004°11'1010.2
2015-Jul-23 10:33N 52°29' E 004°27'4 3.6
2015-Jul-23 09:33N 52°28' E 004°33'3 3.1
2015-Jul-23 08:33N 52°28' E 004°38'6 5.9
2015-Jul-23 07:34N 52°26' E 004°47'2 1.7
2015-Jul-23 06:32N 52°25' E 004°49'0 0.0
2015-Jul-23 05:32N 52°25' E 004°49'0 0.0
2015-Jul-23 04:32N 52°25' E 004°49'0 0.0
2015-Jul-23 03:32N 52°25' E 004°49'0 0.0
2015-Jul-23 02:31N 52°25' E 004°49'0 0.0
2015-Jul-23 01:32N 52°25' E 004°49'0 0.0
2015-Jul-23 00:32N 52°25' E 004°49'0 0.0
2015-Jul-22 23:31N 52°25' E 004°49'0 0.0
2015-Jul-22 22:32N 52°25' E 004°49'0 0.0
2015-Jul-22 21:31N 52°25' E 004°49'0 0.0
2015-Jul-22 20:31N 52°25' E 004°49'0 0.0
2015-Jul-22 19:31N 52°25' E 004°49'0 0.0
2015-Jul-22 18:32N 52°25' E 004°49'0 0.0
2015-Jul-22 17:31N 52°25' E 004°49'0 0.0
2015-Jul-22 16:32N 52°25' E 004°49'0 0.0
2015-Jul-22 15:32N 52°25' E 004°49'0 0.0
2015-Jul-22 14:31N 52°25' E 004°49'0 0.0
2015-Jul-22 13:32N 52°25' E 004°49'0 0.0
2015-Jul-22 12:31N 52°25' E 004°49'0 0.0
2015-Jul-22 11:32N 52°25' E 004°49'0 0.2
2015-Jul-22 10:34N 52°25' E 004°49'7 6.7
2015-Jul-22 09:33N 52°28' E 004°39'2 2.4
2015-Jul-22 08:34N 52°28' E 004°35'4 4.0
2015-Jul-22 07:33N 52°28' E 004°29'8 8.2
2015-Jul-22 06:33N 52°29' E 004°15'4 4.3
2015-Jul-22 05:33N 52°29' E 004°08'8 7.6
2015-Jul-22 04:33N 52°28' E 003°56'8 7.8
2015-Jul-22 03:33N 52°35' E 003°54'1212.0
2015-Jul-22 02:33N 52°47' E 003°56'1212.1
2015-Jul-22 01:33N 52°59' E 004°02'1312.0
2015-Jul-22 00:29N 53°07' E 004°18'1111.4
2015-Jul-21 23:33N 53°16' E 004°28'1111.1
2015-Jul-21 22:33N 53°27' E 004°33'1110.7
2015-Jul-21 21:33N 53°37' E 004°40'1110.6
2015-Jul-21 20:34N 53°46' E 004°46'1110.9
2015-Jul-21 19:31N 53°57' E 004°53'1111.3
2015-Jul-21 18:33N 54°07' E 005°00'1111.5
2015-Jul-21 17:33N 54°18' E 005°08'1211.4
2015-Jul-21 16:28N 54°29' E 005°17'1011.2
2015-Jul-21 15:33N 54°38' E 005°23'22911.3
2015-Jul-20 19:15N 57°46' E 009°19'810.3
2015-Jul-20 18:30N 57°49' E 009°33'2310.4
2015-Jul-20 16:18N 57°50' E 010°16'810.4
2015-Jul-20 15:32N 57°50' E 010°31'1010.2
2015-Jul-20 14:32N 57°47' E 010°49'1010.5
2015-Jul-20 13:33N 57°39' E 011°02'1211.6
2015-Jul-20 12:33N 57°31' E 011°18'1111.4
2015-Jul-20 11:33N 57°22' E 011°29'1212.1
2015-Jul-20 10:33N 57°10' E 011°37'1211.6
2015-Jul-20 09:33N 56°59' E 011°44'1111.3
2015-Jul-20 08:33N 56°49' E 011°51'13211.0
2015-Jul-19 20:30N 54°41' E 010°48'1111.8
2015-Jul-19 19:33N 54°36' E 011°04'1212.3
2015-Jul-19 18:33N 54°32' E 011°25'1212.2
2015-Jul-19 17:33N 54°28' E 011°44'1212.3
2015-Jul-19 16:34N 54°27' E 012°05'5811.4
2015-Jul-19 11:29N 54°57' E 013°30'1112.2
2015-Jul-19 10:33N 55°01' E 013°49'1511.6
2015-Jul-19 09:17N 55°09' E 014°11'911.9
2015-Jul-19 08:33N 55°16' E 014°20'1512.0
2015-Jul-19 07:20N 55°27' E 014°37'1112.1
2015-Jul-19 06:26N 55°32' E 014°54'9411.8
2015-Jul-18 22:31N 55°58' E 017°33'  

Dump ship's entire track history